• Join FlightAware (Why Join?)
  • Login
  • US Flag 
Rudolph Flight #1: Arrived! 
11:16PM EST


 

Airport Tracker/Info


-or-


 

Live Flight TrackerFlight Track Log ✈ N6ZQ ✈ 13-Sep-2013 ✈ KSMS - KRMN

Flight Track Log - Related Links

Times and Time Zones

All times are in EDT time to prevent confusion due to time zone crossing. See the N6ZQ flight status page for this flight to view local times or setup timezone preferences in your user account.

Time Position Orientation Groundspeed Altitude Reporting Facility
EDT Latitude Longitude Course Direction KTS MPH feet Rate Location/Type
11:41AM 35.3967 -79.6486 28° Northeast 212 244 9,500  Level Washington Center
11:42AM 35.4417 -79.6150 31° Northeast 213 245 9,500  Level Washington Center
11:43AM 34.8096 -79.8510 28° Northeast  Level Estimated
11:43AM 35.4972 -79.5769 29° Northeast 219 252 9,500  Level Washington Center
11:44AM 34.8545 -79.8219 28° Northeast  Level FlightAware Approximate
11:44AM 35.5464 -79.5411 31° Northeast 211 243 9,500  Level Washington Center
11:45AM 34.8995 -79.7927 28° Northeast  Level FlightAware Approximate
11:45AM 35.5997 -79.5006 32° Northeast 216 249 9,500  Level Washington Center
11:46AM 34.9445 -79.7635 28° Northeast  Level FlightAware Approximate
11:46AM 35.6511 -79.4647 30° Northeast 217 250 9,500  Level Washington Center
11:47AM 34.9894 -79.7343 28° Northeast  Level FlightAware Approximate
11:47AM 35.7067 -79.4264 29° Northeast 219 252 9,500  Level Washington Center
11:48AM 35.7578 -79.3878 32° Northeast 220 253 9,500  Level Washington Center
11:49AM 35.8178 -79.3447 30° Northeast 217 250 9,500  Level Washington Center
11:50AM 35.8667 -79.3111 29° Northeast 219 252 9,500  Level Washington Center
11:51AM 35.9242 -79.2728 28° Northeast 220 253 9,500  Level Washington Center
11:51AM 35.9242 -79.2703 90° East 222 255 9,500  Level Washington Center
11:52AM 35.9714 -79.2314 34° Northeast 220 253 9,500  Level Washington Center
11:52AM 35.9714 -79.2339 270° West 220 253 9,500  Level Washington Center
11:53AM 36.0289 -79.1928 30° Northeast 220 253 9,500  Level Washington Center
11:53AM 36.0267 -79.1953 222° Southwest 222 255 9,500  Level Washington Center
11:54AM 36.0781 -79.1567 31° Northeast 220 253 9,500  Level Washington Center
11:54AM 36.0800 -79.1592 314° West 222 255 9,500  Level Washington Center
11:55AM 36.1356 -79.1128 34° Northeast 220 253 9,500  Level Washington Center
11:55AM 36.1311 -79.1206 235° Southwest 222 255 9,500  Level Washington Center
11:56AM 36.1844 -79.0817 30° Northeast 223 257 9,500  Level Washington Center
11:57AM 36.2400 -79.0428 29° Northeast 221 254 9,500  Level Washington Center
11:58AM 36.2911 -79.0014 33° Northeast 220 253 9,500  Level Washington Center
11:58AM 36.2953 -79.0014 360° North 218 251 9,500  Level Washington Center
11:59AM 36.3467 -78.9600 33° Northeast 220 253 9,500  Level Washington Center
12:00PM 36.3869 -78.9306 30° Northeast 222 255 9,500  Level Washington Center
12:01PM 36.4400 -78.8967 27° Northeast 222 255 9,500 -60 Level Washington Center
12:02PM 36.4933 -78.8578 30° Northeast 217 250 9,400  Descending Washington Center
12:03PM 36.5444 -78.8211 30° Northeast 217 250 9,500  Climbing Washington Center
12:04PM 36.5978 -78.7819 31° Northeast 217 250 9,500  Level Washington Center
12:05PM 36.6489 -78.7425 32° Northeast 212 244 9,500  Level Washington Center
12:06PM 36.7000 -78.7031 32° Northeast 217 250 9,500  Level Washington Center
12:07PM 36.7531 -78.6664 29° Northeast 212 244 9,500  Level Washington Center
12:08PM 36.8106 -78.6219 32° Northeast 212 244 9,500  Level Washington Center
12:09PM 36.8614 -78.5825 32° Northeast 212 244 9,500  Level Washington Center
12:10PM 36.9144 -78.5456 29° Northeast 218 251 9,500  Level Washington Center
12:11PM 36.9678 -78.5061 31° Northeast 218 251 9,500  Level Washington Center
12:12PM 37.0144 -78.4689 32° Northeast 218 251 9,500  Level Washington Center
12:13PM 37.0675 -78.4317 29° Northeast 218 251 9,500  Level Washington Center
12:14PM 37.1228 -78.3894 31° Northeast 218 251 9,500  Level Washington Center
12:15PM 37.1800 -78.3472 30° Northeast 218 251 9,500  Level Washington Center
12:16PM 37.2353 -78.3075 30° Northeast 218 251 9,500  Level Washington Center
12:17PM 37.2861 -78.2675 32° Northeast 218 251 9,500  Level Washington Center
12:18PM 37.3414 -78.2275 30° Northeast 218 251 9,500  Level Washington Center
12:19PM 37.3900 -78.1928 30° Northeast 218 251 9,500  Level Washington Center
12:20PM 37.4514 -78.1503 29° Northeast 218 251 9,500  Level Washington Center
12:21PM 37.4983 -78.1100 34° Northeast 219 252 9,500 -60 Level Washington Center
12:22PM 37.5533 -78.0619 35° Northeast 219 252 9,400 -420 Descending Washington Center
12:23PM 37.6025 -78.0114 39° Northeast 229 264 8,700 -780 Descending Washington Center
12:24PM 37.6578 -77.9553 39° Northeast 234 269 7,900 -780 Descending Washington Center
12:25PM 37.7064 -77.9175 32° Northeast 229 264 7,200 -720 Descending Washington Center
12:26PM 37.7550 -77.8847 28° Northeast 206 237 6,500 -600 Descending Washington Center
12:27PM 37.8081 -77.8469 29° Northeast 201 231 6,000 -600 Descending Washington Center
12:28PM 37.8567 -77.8089 32° Northeast 201 231 5,400 -600 Descending Washington Center
12:29PM 37.8969 -77.7786 31° Northeast 201 231 4,900 -540 Descending Washington Center
12:30PM 37.9475 -77.7431 29° Northeast 190 219 4,400 -540 Descending Washington Center
12:31PM 37.9878 -77.7128 31° Northeast 185 213 3,900 -480 Descending Washington Center
12:32PM 38.0383 -77.6850 23° Northeast 185 213 3,500 -480 Descending Washington Center
12:34PM 38.1167 -77.6167 34° Northeast 198 228 2,700 -420 Descending Potomac TRACON
12:35PM 38.1833 -77.5833 21° North 199 229 2,400 -300 Descending Potomac TRACON
12:37PM 38.2496 -77.5336 28° Northeast  Level FlightAware Approximate
12:44PM 38.3500 -77.4500 30° Northeast  Level FlightAware Approximate
12:45PM 38.3981 -77.4555 30° Northeast  Level Estimated
12:46PM 38.3981 -77.4555 30° Northeast  Level Estimated
12:47PM 38.3981 -77.4555 30° Northeast  Level Estimated
12:48PM 38.3981 -77.4555 30° Northeast  Level Estimated
12:49PM 38.3981 -77.4555 30° Northeast  Level Estimated
12:50PM 38.3981 -77.4555 30° Northeast  Level Estimated
12:51PM 38.3981 -77.4555 30° Northeast  Level Estimated
12:52PM 38.3981 -77.4555 30° Northeast  Level Estimated
12:53PM 38.3981 -77.4555 30° Northeast  Level Estimated
12:54PM 38.3981 -77.4555 30° Northeast  Level Estimated
12:55PM 38.3981 -77.4555 30° Northeast  Level Estimated
12:56PM 38.3981 -77.4555 30° Northeast  Level Estimated
12:57PM 38.3981 -77.4555 30° Northeast  Level Estimated
12:58PM 38.3981 -77.4555 30° Northeast  Level Estimated
12:59PM 38.3981 -77.4555 30° Northeast  Level Estimated
01:00PM 38.3981 -77.4555 30° Northeast  Level Estimated